sensor_id;sensor_type;location;lat;lon;timestamp;pressure;altitude;pressure_sealevel;temperature;humidity
43553;BME280;29153;42.696;23.218;2023-03-20T00:01:23;94791.28;;;0.89;94.75
43553;BME280;29153;42.696;23.218;2023-03-20T00:03:51;94781.55;;;0.87;94.80
43553;BME280;29153;42.696;23.218;2023-03-20T00:06:21;94781.18;;;0.77;95.05
43553;BME280;29153;42.696;23.218;2023-03-20T00:08:51;94780.30;;;0.74;95.26
43553;BME280;29153;42.696;23.218;2023-03-20T00:11:34;94785.50;;;0.81;95.39
43553;BME280;29153;42.696;23.218;2023-03-20T00:14:05;94770.55;;;0.85;95.08
43553;BME280;29153;42.696;23.218;2023-03-20T00:16:35;94774.84;;;0.82;94.90
43553;BME280;29153;42.696;23.218;2023-03-20T00:19:04;94767.76;;;0.74;95.13
43553;BME280;29153;42.696;23.218;2023-03-20T00:21:32;94769.75;;;0.78;95.30
43553;BME280;29153;42.696;23.218;2023-03-20T00:23:59;94770.48;;;0.76;95.38
43553;BME280;29153;42.696;23.218;2023-03-20T00:26:32;94771.17;;;0.74;95.53
43553;BME280;29153;42.696;23.218;2023-03-20T00:29:01;94769.17;;;0.76;95.64
43553;BME280;29153;42.696;23.218;2023-03-20T00:31:31;94768.14;;;0.77;95.75
43553;BME280;29153;42.696;23.218;2023-03-20T00:34:01;94756.76;;;0.72;95.76
43553;BME280;29153;42.696;23.218;2023-03-20T00:36:29;94760.67;;;0.72;96.06
43553;BME280;29153;42.696;23.218;2023-03-20T00:38:57;94762.35;;;0.75;95.96
43553;BME280;29153;42.696;23.218;2023-03-20T00:42:03;94768.11;;;0.68;96.19
43553;BME280;29153;42.696;23.218;2023-03-20T00:44:35;94766.88;;;0.71;96.44
43553;BME280;29153;42.696;23.218;2023-03-20T00:47:08;94763.54;;;0.79;96.08
43553;BME280;29153;42.696;23.218;2023-03-20T00:49:35;94755.33;;;0.76;95.65
43553;BME280;29153;42.696;23.218;2023-03-20T00:52:04;94764.66;;;0.74;95.64
43553;BME280;29153;42.696;23.218;2023-03-20T00:54:32;94756.07;;;0.67;95.86
43553;BME280;29153;42.696;23.218;2023-03-20T00:57:07;94758.98;;;0.68;95.82
43553;BME280;29153;42.696;23.218;2023-03-20T00:59:38;94757.77;;;0.64;96.14
43553;BME280;29153;42.696;23.218;2023-03-20T01:02:06;94751.05;;;0.66;96.24
43553;BME280;29153;42.696;23.218;2023-03-20T01:04:37;94747.52;;;0.69;96.25
43553;BME280;29153;42.696;23.218;2023-03-20T01:07:05;94742.35;;;0.63;96.35
43553;BME280;29153;42.696;23.218;2023-03-20T01:09:33;94697.77;;;0.26;96.67
43553;BME280;29153;42.696;23.218;2023-03-20T01:12:02;94740.94;;;0.60;96.81
43553;BME280;29153;42.696;23.218;2023-03-20T01:14:30;94709.67;;;0.38;96.92
43553;BME280;29153;42.696;23.218;2023-03-20T01:16:57;94738.75;;;0.57;97.07
43553;BME280;29153;42.696;23.218;2023-03-20T01:19:25;94739.06;;;0.58;97.28
43553;BME280;29153;42.696;23.218;2023-03-20T01:21:52;94739.06;;;0.58;97.10
43553;BME280;29153;42.696;23.218;2023-03-20T01:24:20;94731.74;;;0.58;97.12
43553;BME280;29153;42.696;23.218;2023-03-20T01:26:47;94731.81;;;0.60;96.96
43553;BME280;29153;42.696;23.218;2023-03-20T01:29:25;94730.81;;;0.61;96.81
43553;BME280;29153;42.696;23.218;2023-03-20T01:31:58;94740.78;;;0.55;96.88
43553;BME280;29153;42.696;23.218;2023-03-20T01:34:26;94729.20;;;0.60;96.95
43553;BME280;29153;42.696;23.218;2023-03-20T01:36:56;94739.17;;;0.54;96.84
43553;BME280;29153;42.696;23.218;2023-03-20T01:39:34;94732.23;;;0.57;96.83
43553;BME280;29153;42.696;23.218;2023-03-20T01:42:02;94734.27;;;0.55;96.79
43553;BME280;29153;42.696;23.218;2023-03-20T01:44:34;94737.15;;;0.56;96.76
43553;BME280;29153;42.696;23.218;2023-03-20T01:47:08;94737.95;;;0.57;96.69
43553;BME280;29153;42.696;23.218;2023-03-20T01:52:29;94749.52;;;0.45;97.01
43553;BME280;29153;42.696;23.218;2023-03-20T01:54:57;94743.70;;;0.43;97.08
43553;BME280;29153;42.696;23.218;2023-03-20T01:57:25;94747.15;;;0.30;97.41
43553;BME280;29153;42.696;23.218;2023-03-20T02:00:03;94740.83;;;0.35;97.40
43553;BME280;29153;42.696;23.218;2023-03-20T02:02:29;94738.84;;;0.31;97.52
43553;BME280;29153;42.696;23.218;2023-03-20T02:05:00;94743.24;;;0.30;97.66
43553;BME280;29153;42.696;23.218;2023-03-20T02:07:27;94730.63;;;0.34;97.42
43553;BME280;29153;42.696;23.218;2023-03-20T02:09:56;94725.92;;;0.33;97.19
43553;BME280;29153;42.696;23.218;2023-03-20T02:12:24;94730.83;;;0.32;97.12
43553;BME280;29153;42.696;23.218;2023-03-20T02:14:52;94730.83;;;0.26;97.18
43553;BME280;29153;42.696;23.218;2023-03-20T02:17:20;94741.55;;;0.27;97.48
43553;BME280;29153;42.696;23.218;2023-03-20T02:20:03;94738.78;;;0.15;97.88
43553;BME280;29153;42.696;23.218;2023-03-20T02:40:20;94735.07;;;0.14;98.89
43553;BME280;29153;42.696;23.218;2023-03-20T02:43:52;94731.08;;;0.05;98.89
43553;BME280;29153;42.696;23.218;2023-03-20T02:48:35;94732.91;;;-0.03;99.32
43553;BME280;29153;42.696;23.218;2023-03-20T02:56:58;94739.72;;;-0.02;99.70
43553;BME280;29153;42.696;23.218;2023-03-20T02:59:42;94731.30;;;0.03;99.72
43553;BME280;29153;42.696;23.218;2023-03-20T03:02:15;94731.11;;;-0.02;99.53
43553;BME280;29153;42.696;23.218;2023-03-20T03:04:43;94729.78;;;0.05;99.55
43553;BME280;29153;42.696;23.218;2023-03-20T03:07:10;94737.11;;;-0.02;99.66
43553;BME280;29153;42.696;23.218;2023-03-20T03:10:02;94732.49;;;0.00;99.65
43553;BME280;29153;42.696;23.218;2023-03-20T03:12:30;94731.30;;;-0.04;99.80
43553;BME280;29153;42.696;23.218;2023-03-20T03:17:48;94729.11;;;0.00;99.59
43553;BME280;29153;42.696;23.218;2023-03-20T03:20:24;94729.61;;;-0.01;99.73
43553;BME280;29153;42.696;23.218;2023-03-20T03:22:52;94733.31;;;-0.06;100.00
43553;BME280;29153;42.696;23.218;2023-03-20T03:25:21;94726.20;;;-0.01;100.00
43553;BME280;29153;42.696;23.218;2023-03-20T03:28:02;94652.49;;;-0.43;100.00
43553;BME280;29153;42.696;23.218;2023-03-20T03:30:31;94728.20;;;-0.03;99.92
43553;BME280;29153;42.696;23.218;2023-03-20T03:33:14;94727.12;;;-0.05;100.00
43553;BME280;29153;42.696;23.218;2023-03-20T03:35:42;94729.11;;;0.00;100.00
43553;BME280;29153;42.696;23.218;2023-03-20T03:38:32;94729.89;;;0.00;100.00
43553;BME280;29153;42.696;23.218;2023-03-20T03:41:33;94729.89;;;0.00;100.00
43553;BME280;29153;42.696;23.218;2023-03-20T03:46:49;94729.72;;;-0.05;100.00
43553;BME280;29153;42.696;23.218;2023-03-20T03:49:19;94731.21;;;-0.06;100.00
43553;BME280;29153;42.696;23.218;2023-03-20T03:51:49;94724.89;;;-0.08;100.00
43553;BME280;29153;42.696;23.218;2023-03-20T03:54:24;94724.52;;;-0.05;100.00
43553;BME280;29153;42.696;23.218;2023-03-20T03:56:49;94715.79;;;-0.01;100.00
43553;BME280;29153;42.696;23.218;2023-03-20T03:59:30;94720.27;;;0.01;100.00
43553;BME280;29153;42.696;23.218;2023-03-20T04:01:53;94678.78;;;-0.23;100.00
43553;BME280;29153;42.696;23.218;2023-03-20T04:04:24;94715.09;;;-0.06;100.00
43553;BME280;29153;42.696;23.218;2023-03-20T04:06:53;94718.00;;;-0.05;100.00
43553;BME280;29153;42.696;23.218;2023-03-20T04:09:21;94716.87;;;0.00;100.00
43553;BME280;29153;42.696;23.218;2023-03-20T04:11:51;94710.97;;;0.03;100.00
43553;BME280;29153;42.696;23.218;2023-03-20T04:14:19;94716.37;;;0.01;100.00
43553;BME280;29153;42.696;23.218;2023-03-20T04:16:47;94708.67;;;-0.03;100.00
43553;BME280;29153;42.696;23.218;2023-03-20T04:19:14;94694.84;;;-0.04;100.00
43553;BME280;29153;42.696;23.218;2023-03-20T04:21:42;94693.55;;;-0.04;100.00
43553;BME280;29153;42.696;23.218;2023-03-20T04:24:11;94696.64;;;0.03;100.00
43553;BME280;29153;42.696;23.218;2023-03-20T04:26:38;94695.92;;;0.05;100.00
43553;BME280;29153;42.696;23.218;2023-03-20T04:29:06;94701.86;;;0.03;100.00
43553;BME280;29153;42.696;23.218;2023-03-20T04:31:34;94700.63;;;0.12;100.00
43553;BME280;29153;42.696;23.218;2023-03-20T04:34:01;94707.64;;;0.05;100.00
43553;BME280;29153;42.696;23.218;2023-03-20T04:36:29;94709.86;;;0.08;100.00
43553;BME280;29153;42.696;23.218;2023-03-20T04:38:56;94707.84;;;0.10;100.00
43553;BME280;29153;42.696;23.218;2023-03-20T04:41:24;94712.23;;;0.09;100.00
43553;BME280;29153;42.696;23.218;2023-03-20T04:43:51;94718.25;;;0.16;100.00
43553;BME280;29153;42.696;23.218;2023-03-20T04:46:19;94717.03;;;0.25;100.00
43553;BME280;29153;42.696;23.218;2023-03-20T04:48:46;94733.27;;;0.21;99.94
43553;BME280;29153;42.696;23.218;2023-03-20T04:51:14;94729.83;;;0.27;99.92
43553;BME280;29153;42.696;23.218;2023-03-20T04:53:41;94732.44;;;0.33;99.90
43553;BME280;29153;42.696;23.218;2023-03-20T04:56:09;94738.72;;;0.35;99.81
43553;BME280;29153;42.696;23.218;2023-03-20T04:58:37;94739.83;;;0.36;99.90
43553;BME280;29153;42.696;23.218;2023-03-20T05:01:04;94742.13;;;0.42;100.00
43553;BME280;29153;42.696;23.218;2023-03-20T05:03:32;94742.39;;;0.50;100.00
43553;BME280;29153;42.696;23.218;2023-03-20T05:06:00;94739.36;;;0.59;100.00
43553;BME280;29153;42.696;23.218;2023-03-20T05:08:28;94739.82;;;0.65;100.00
43553;BME280;29153;42.696;23.218;2023-03-20T05:10:55;94737.70;;;0.71;100.00
43553;BME280;29153;42.696;23.218;2023-03-20T05:13:23;94745.28;;;0.79;100.00
43553;BME280;29153;42.696;23.218;2023-03-20T05:15:50;94752.17;;;0.89;100.00
43553;BME280;29153;42.696;23.218;2023-03-20T05:18:18;94747.52;;;0.98;100.00
43553;BME280;29153;42.696;23.218;2023-03-20T05:20:45;94748.20;;;1.03;100.00
43553;BME280;29153;42.696;23.218;2023-03-20T05:23:14;94750.08;;;1.20;100.00
43553;BME280;29153;42.696;23.218;2023-03-20T05:25:43;94748.49;;;1.35;100.00
43553;BME280;29153;42.696;23.218;2023-03-20T05:28:10;94745.05;;;1.41;100.00
43553;BME280;29153;42.696;23.218;2023-03-20T05:30:38;94753.50;;;1.52;100.00
43553;BME280;29153;42.696;23.218;2023-03-20T05:33:05;94747.08;;;1.64;100.00
43553;BME280;29153;42.696;23.218;2023-03-20T05:35:33;94749.11;;;1.87;100.00
43553;BME280;29153;42.696;23.218;2023-03-20T05:38:00;94749.36;;;2.03;99.82
43553;BME280;29153;42.696;23.218;2023-03-20T05:40:28;94751.07;;;2.25;99.76
43553;BME280;29153;42.696;23.218;2023-03-20T05:42:56;94753.77;;;2.46;99.28
43553;BME280;29153;42.696;23.218;2023-03-20T05:45:23;94749.05;;;2.72;99.11
43553;BME280;29153;42.696;23.218;2023-03-20T05:47:51;94746.96;;;3.11;98.57
43553;BME280;29153;42.696;23.218;2023-03-20T05:50:18;94745.67;;;3.52;97.98
43553;BME280;29153;42.696;23.218;2023-03-20T05:52:47;94749.45;;;3.89;96.67
43553;BME280;29153;42.696;23.218;2023-03-20T05:55:14;94751.05;;;4.13;94.79
43553;BME280;29153;42.696;23.218;2023-03-20T05:57:42;94747.57;;;4.33;93.79
43553;BME280;29153;42.696;23.218;2023-03-20T06:00:10;94746.47;;;4.55;92.64
43553;BME280;29153;42.696;23.218;2023-03-20T06:02:38;94748.16;;;4.73;91.66
43553;BME280;29153;42.696;23.218;2023-03-20T06:05:06;94743.88;;;4.95;91.66
43553;BME280;29153;42.696;23.218;2023-03-20T06:07:33;94745.17;;;5.21;91.11
43553;BME280;29153;42.696;23.218;2023-03-20T06:10:01;94748.64;;;5.38;90.01
43553;BME280;29153;42.696;23.218;2023-03-20T06:12:28;94751.84;;;5.71;88.71
43553;BME280;29153;42.696;23.218;2023-03-20T06:14:56;94751.22;;;5.94;88.17
43553;BME280;29153;42.696;23.218;2023-03-20T06:17:23;94754.67;;;6.14;87.05
43553;BME280;29153;42.696;23.218;2023-03-20T06:19:51;94751.20;;;6.28;86.53
43553;BME280;29153;42.696;23.218;2023-03-20T06:22:18;94748.80;;;6.62;85.12
43553;BME280;29153;42.696;23.218;2023-03-20T06:24:46;94735.66;;;6.84;83.77
43553;BME280;29153;42.696;23.218;2023-03-20T06:27:14;94743.95;;;7.19;82.86
43553;BME280;29153;42.696;23.218;2023-03-20T06:29:42;94748.09;;;7.35;81.95
43553;BME280;29153;42.696;23.218;2023-03-20T06:32:09;94715.46;;;7.41;82.32
43553;BME280;29153;42.696;23.218;2023-03-20T06:34:38;94760.22;;;7.89;80.81
43553;BME280;29153;42.696;23.218;2023-03-20T06:37:06;94763.01;;;8.04;79.03
43553;BME280;29153;42.696;23.218;2023-03-20T06:39:34;94766.80;;;8.18;77.86
43553;BME280;29153;42.696;23.218;2023-03-20T06:42:02;94769.08;;;8.34;75.64
43553;BME280;29153;42.696;23.218;2023-03-20T06:44:29;94768.89;;;8.48;74.24
43553;BME280;29153;42.696;23.218;2023-03-20T06:46:57;94765.28;;;8.59;74.08
43553;BME280;29153;42.696;23.218;2023-03-20T06:49:24;94764.28;;;8.73;73.54
43553;BME280;29153;42.696;23.218;2023-03-20T06:51:53;94757.75;;;8.83;74.03
43553;BME280;29153;42.696;23.218;2023-03-20T06:54:20;94758.39;;;9.05;73.26
43553;BME280;29153;42.696;23.218;2023-03-20T06:56:48;94761.86;;;9.13;72.34
43553;BME280;29153;42.696;23.218;2023-03-20T06:59:16;94764.00;;;9.22;68.86
43553;BME280;29153;42.696;23.218;2023-03-20T07:01:44;94763.80;;;9.36;67.88
43553;BME280;29153;42.696;23.218;2023-03-20T07:04:11;94767.80;;;9.51;69.94
43553;BME280;29153;42.696;23.218;2023-03-20T07:06:40;94769.95;;;9.54;67.10
43553;BME280;29153;42.696;23.218;2023-03-20T07:09:08;94750.41;;;9.70;66.71
43553;BME280;29153;42.696;23.218;2023-03-20T07:11:35;94755.44;;;9.74;66.18
43553;BME280;29153;42.696;23.218;2023-03-20T07:14:03;94750.44;;;9.95;66.17
43553;BME280;29153;42.696;23.218;2023-03-20T07:16:31;94752.86;;;10.17;65.79
43553;BME280;29153;42.696;23.218;2023-03-20T07:18:58;94754.43;;;10.41;65.61
43553;BME280;29153;42.696;23.218;2023-03-20T07:21:26;94761.03;;;10.74;64.68
43553;BME280;29153;42.696;23.218;2023-03-20T07:23:54;94764.44;;;10.79;63.71
43553;BME280;29153;42.696;23.218;2023-03-20T07:26:21;94766.28;;;10.89;62.79
43553;BME280;29153;42.696;23.218;2023-03-20T07:28:49;94756.73;;;10.88;63.63
43553;BME280;29153;42.696;23.218;2023-03-20T07:31:24;94763.58;;;11.04;61.58
43553;BME280;29153;42.696;23.218;2023-03-20T07:33:54;94765.18;;;11.08;61.16
43553;BME280;29153;42.696;23.218;2023-03-20T07:36:21;94753.20;;;11.18;60.74
43553;BME280;29153;42.696;23.218;2023-03-20T07:38:49;94764.25;;;11.40;60.27
43553;BME280;29153;42.696;23.218;2023-03-20T07:41:16;94763.59;;;11.66;59.76
43553;BME280;29153;42.696;23.218;2023-03-20T07:43:44;94763.77;;;11.87;58.03
43553;BME280;29153;42.696;23.218;2023-03-20T07:46:11;94761.53;;;12.04;58.20
43553;BME280;29153;42.696;23.218;2023-03-20T07:48:39;94755.86;;;12.16;61.79
43553;BME280;29153;42.696;23.218;2023-03-20T07:51:06;94759.06;;;12.49;59.65
43553;BME280;29153;42.696;23.218;2023-03-20T07:53:34;94752.06;;;12.85;60.02
43553;BME280;29153;42.696;23.218;2023-03-20T07:56:02;94751.62;;;12.77;58.88
43553;BME280;29153;42.696;23.218;2023-03-20T07:58:30;94755.39;;;12.98;59.29
43553;BME280;29153;42.696;23.218;2023-03-20T08:00:57;94752.48;;;13.23;59.20
43553;BME280;29153;42.696;23.218;2023-03-20T08:03:25;94757.81;;;13.44;55.91
43553;BME280;29153;42.696;23.218;2023-03-20T08:05:53;94751.08;;;13.73;57.27
43553;BME280;29153;42.696;23.218;2023-03-20T08:08:21;94750.91;;;13.83;54.80
43553;BME280;29153;42.696;23.218;2023-03-20T08:10:48;94748.31;;;13.78;55.35
43553;BME280;29153;42.696;23.218;2023-03-20T08:13:16;94740.41;;;13.92;55.89
43553;BME280;29153;42.696;23.218;2023-03-20T08:15:45;94751.61;;;14.26;53.67
43553;BME280;29153;42.696;23.218;2023-03-20T08:18:12;94749.20;;;14.27;51.33
43553;BME280;29153;42.696;23.218;2023-03-20T08:20:40;94745.42;;;14.12;51.10
43553;BME280;29153;42.696;23.218;2023-03-20T08:23:07;94737.62;;;14.37;51.23
43553;BME280;29153;42.696;23.218;2023-03-20T08:25:35;94740.31;;;14.50;51.00
43553;BME280;29153;42.696;23.218;2023-03-20T08:28:03;94745.36;;;14.52;52.76
43553;BME280;29153;42.696;23.218;2023-03-20T08:30:30;94745.36;;;14.52;52.76
43553;BME280;29153;42.696;23.218;2023-03-20T08:32:57;94750.22;;;14.64;49.48
43553;BME280;29153;42.696;23.218;2023-03-20T08:35:25;94752.28;;;14.53;51.28
43553;BME280;29153;42.696;23.218;2023-03-20T08:37:52;94751.02;;;14.64;49.28
43553;BME280;29153;42.696;23.218;2023-03-20T08:40:20;94740.89;;;14.64;49.09
43553;BME280;29153;42.696;23.218;2023-03-20T08:42:47;94744.55;;;14.68;49.54
43553;BME280;29153;42.696;23.218;2023-03-20T08:45:15;94739.81;;;14.65;50.46
43553;BME280;29153;42.696;23.218;2023-03-20T08:47:42;94737.91;;;14.51;49.10
43553;BME280;29153;42.696;23.218;2023-03-20T08:50:11;94746.77;;;14.47;50.67
43553;BME280;29153;42.696;23.218;2023-03-20T08:52:39;94741.94;;;14.65;51.04
43553;BME280;29153;42.696;23.218;2023-03-20T08:55:10;94743.25;;;14.81;50.20
43553;BME280;29153;42.696;23.218;2023-03-20T08:57:38;94733.34;;;14.98;50.95
43553;BME280;29153;42.696;23.218;2023-03-20T09:00:09;94733.34;;;14.98;50.95
43553;BME280;29153;42.696;23.218;2023-03-20T09:02:38;94734.50;;;15.08;50.04
43553;BME280;29153;42.696;23.218;2023-03-20T09:05:06;94742.35;;;15.29;49.92
43553;BME280;29153;42.696;23.218;2023-03-20T09:07:33;94730.85;;;15.31;48.53
43553;BME280;29153;42.696;23.218;2023-03-20T09:10:03;94738.14;;;14.98;48.88
43553;BME280;29153;42.696;23.218;2023-03-20T09:12:31;94732.52;;;15.00;48.96
43553;BME280;29153;42.696;23.218;2023-03-20T09:14:59;94725.00;;;15.16;49.59
43553;BME280;29153;42.696;23.218;2023-03-20T09:17:26;94721.41;;;15.23;49.32
43553;BME280;29153;42.696;23.218;2023-03-20T09:19:54;94714.42;;;15.24;51.77
43553;BME280;29153;42.696;23.218;2023-03-20T09:22:22;94713.79;;;15.30;53.51
43553;BME280;29153;42.696;23.218;2023-03-20T09:24:49;94654.83;;;15.15;48.11
43553;BME280;29153;42.696;23.218;2023-03-20T09:27:18;94709.72;;;15.60;47.92
43553;BME280;29153;42.696;23.218;2023-03-20T09:29:46;94709.72;;;15.60;47.92
43553;BME280;29153;42.696;23.218;2023-03-20T09:32:14;94702.97;;;15.51;47.23
43553;BME280;29153;42.696;23.218;2023-03-20T09:34:42;94691.89;;;15.30;46.86
43553;BME280;29153;42.696;23.218;2023-03-20T09:37:09;94699.50;;;15.51;47.07
43553;BME280;29153;42.696;23.218;2023-03-20T09:39:37;94695.84;;;15.71;46.59
43553;BME280;29153;42.696;23.218;2023-03-20T09:45:03;94685.42;;;15.83;45.71
43553;BME280;29153;42.696;23.218;2023-03-20T09:47:57;94676.89;;;15.95;48.63
43553;BME280;29153;42.696;23.218;2023-03-20T09:53:02;94664.04;;;16.50;46.95
43553;BME280;29153;42.696;23.218;2023-03-20T09:55:38;94660.98;;;16.43;46.20
43553;BME280;29153;42.696;23.218;2023-03-20T09:58:01;94661.21;;;16.24;44.21
43553;BME280;29153;42.696;23.218;2023-03-20T10:00:30;94652.17;;;16.12;45.23
43553;BME280;29153;42.696;23.218;2023-03-20T10:03:03;94642.00;;;16.22;44.93
43553;BME280;29153;42.696;23.218;2023-03-20T10:05:37;94643.06;;;16.13;45.56
43553;BME280;29153;42.696;23.218;2023-03-20T10:08:10;94632.18;;;16.20;45.57
43553;BME280;29153;42.696;23.218;2023-03-20T10:10:46;94630.56;;;16.42;45.37
43553;BME280;29153;42.696;23.218;2023-03-20T10:19:26;94625.08;;;16.77;43.82
43553;BME280;29153;42.696;23.218;2023-03-20T10:24:41;94618.58;;;17.09;44.68
43553;BME280;29153;42.696;23.218;2023-03-20T10:27:24;94550.30;;;16.92;46.39
43553;BME280;29153;42.696;23.218;2023-03-20T10:30:01;94608.30;;;17.31;43.99
43553;BME280;29153;42.696;23.218;2023-03-20T10:40:34;94591.62;;;17.51;42.27
43553;BME280;29153;42.696;23.218;2023-03-20T10:43:22;94588.02;;;17.73;42.25
43553;BME280;29153;42.696;23.218;2023-03-20T10:46:04;94582.75;;;17.79;42.42
43553;BME280;29153;42.696;23.218;2023-03-20T10:48:39;94575.85;;;17.93;42.14
43553;BME280;29153;42.696;23.218;2023-03-20T10:51:04;94579.70;;;18.06;40.95
43553;BME280;29153;42.696;23.218;2023-03-20T10:53:58;94572.41;;;17.92;40.63
43553;BME280;29153;42.696;23.218;2023-03-20T10:56:30;94572.40;;;18.01;41.58
43553;BME280;29153;42.696;23.218;2023-03-20T10:59:19;94570.67;;;17.96;39.34
43553;BME280;29153;42.696;23.218;2023-03-20T11:01:45;94569.78;;;17.98;40.09
43553;BME280;29153;42.696;23.218;2023-03-20T11:04:13;94563.08;;;17.98;41.77
43553;BME280;29153;42.696;23.218;2023-03-20T11:09:43;94562.57;;;18.22;38.41
43553;BME280;29153;42.696;23.218;2023-03-20T11:12:19;94560.52;;;18.42;40.14
43553;BME280;29153;42.696;23.218;2023-03-20T11:14:46;94551.10;;;18.51;38.26
43553;BME280;29153;42.696;23.218;2023-03-20T11:17:16;94541.37;;;18.38;37.80
43553;BME280;29153;42.696;23.218;2023-03-20T11:19:43;94541.84;;;18.40;37.80
43553;BME280;29153;42.696;23.218;2023-03-20T11:22:25;94540.64;;;18.43;38.22
43553;BME280;29153;42.696;23.218;2023-03-20T11:25:00;94532.73;;;18.55;37.49
43553;BME280;29153;42.696;23.218;2023-03-20T11:27:32;94533.73;;;18.57;36.65
43553;BME280;29153;42.696;23.218;2023-03-20T11:29:57;94528.66;;;18.64;38.37
43553;BME280;29153;42.696;23.218;2023-03-20T11:32:32;94522.45;;;18.57;35.92
43553;BME280;29153;42.696;23.218;2023-03-20T11:37:46;94523.39;;;18.76;37.31
43553;BME280;29153;42.696;23.218;2023-03-20T11:40:33;94512.17;;;18.89;35.89
43553;BME280;29153;42.696;23.218;2023-03-20T11:43:04;94507.97;;;18.94;35.91
43553;BME280;29153;42.696;23.218;2023-03-20T11:45:41;94504.07;;;18.97;36.87
43553;BME280;29153;42.696;23.218;2023-03-20T11:48:23;94495.78;;;18.96;37.17
43553;BME280;29153;42.696;23.218;2023-03-20T11:50:58;94484.60;;;19.15;37.25
43553;BME280;29153;42.696;23.218;2023-03-20T11:53:37;94481.18;;;19.27;35.86
43553;BME280;29153;42.696;23.218;2023-03-20T11:56:12;94477.77;;;19.18;36.92
43553;BME280;29153;42.696;23.218;2023-03-20T12:04:28;94465.05;;;19.21;36.27
43553;BME280;29153;42.696;23.218;2023-03-20T12:07:10;94465.46;;;19.37;34.39
43553;BME280;29153;42.696;23.218;2023-03-20T12:09:51;94459.03;;;19.30;34.41
43553;BME280;29153;42.696;23.218;2023-03-20T12:12:47;94456.27;;;19.38;33.70
43553;BME280;29153;42.696;23.218;2023-03-20T12:15:24;94452.31;;;19.30;34.97
43553;BME280;29153;42.696;23.218;2023-03-20T12:18:00;94446.98;;;19.36;34.86
43553;BME280;29153;42.696;23.218;2023-03-20T12:20:56;94444.00;;;19.43;34.25
43553;BME280;29153;42.696;23.218;2023-03-20T12:23:33;94447.02;;;19.42;31.24
43553;BME280;29153;42.696;23.218;2023-03-20T12:28:52;94436.07;;;19.26;31.56
43553;BME280;29153;42.696;23.218;2023-03-20T12:36:51;94425.69;;;19.31;32.08
43553;BME280;29153;42.696;23.218;2023-03-20T12:39:22;94421.92;;;19.38;31.88
43553;BME280;29153;42.696;23.218;2023-03-20T12:45:05;94421.09;;;19.52;30.75
43553;BME280;29153;42.696;23.218;2023-03-20T12:50:42;94411.73;;;19.37;29.78
43553;BME280;29153;42.696;23.218;2023-03-20T12:58:57;94399.97;;;19.36;31.25
43553;BME280;29153;42.696;23.218;2023-03-20T13:01:31;94393.72;;;19.38;28.28
43553;BME280;29153;42.696;23.218;2023-03-20T13:04:20;94392.64;;;19.45;30.02
43553;BME280;29153;42.696;23.218;2023-03-20T13:06:52;94391.23;;;19.39;29.44
43553;BME280;29153;42.696;23.218;2023-03-20T13:12:29;94381.57;;;19.46;28.79
43553;BME280;29153;42.696;23.218;2023-03-20T13:18:39;94380.14;;;19.55;28.94
43553;BME280;29153;42.696;23.218;2023-03-20T13:20:35;94372.72;;;19.52;29.44
43553;BME280;29153;42.696;23.218;2023-03-20T13:23:21;94367.30;;;19.40;29.12
43553;BME280;29153;42.696;23.218;2023-03-20T13:31:19;94358.80;;;19.38;28.18
43553;BME280;29153;42.696;23.218;2023-03-20T13:39:13;94348.43;;;19.16;28.83
43553;BME280;29153;42.696;23.218;2023-03-20T13:41:41;94347.44;;;19.20;27.82
43553;BME280;29153;42.696;23.218;2023-03-20T13:44:11;94352.23;;;19.15;28.57
43553;BME280;29153;42.696;23.218;2023-03-20T13:52:12;94346.42;;;19.19;27.84
43553;BME280;29153;42.696;23.218;2023-03-20T13:55:13;94334.12;;;19.30;28.41
43553;BME280;29153;42.696;23.218;2023-03-20T14:00:48;94331.52;;;19.48;27.92
43553;BME280;29153;42.696;23.218;2023-03-20T14:05:54;94330.30;;;19.58;26.91
43553;BME280;29153;42.696;23.218;2023-03-20T14:08:31;94321.23;;;19.68;27.29
43553;BME280;29153;42.696;23.218;2023-03-20T14:13:36;94310.28;;;19.79;27.60
43553;BME280;29153;42.696;23.218;2023-03-20T14:16:11;94305.47;;;19.85;27.54
43553;BME280;29153;42.696;23.218;2023-03-20T14:18:39;94309.16;;;19.92;27.91
43553;BME280;29153;42.696;23.218;2023-03-20T14:21:13;94308.92;;;19.73;26.39
43553;BME280;29153;42.696;23.218;2023-03-20T14:23:47;94308.04;;;19.63;27.42
43553;BME280;29153;42.696;23.218;2023-03-20T14:26:19;94309.81;;;19.77;27.29
43553;BME280;29153;42.696;23.218;2023-03-20T14:28:57;94305.10;;;19.68;26.09
43553;BME280;29153;42.696;23.218;2023-03-20T14:31:30;94301.07;;;19.68;26.03
43553;BME280;29153;42.696;23.218;2023-03-20T14:34:06;94296.17;;;19.76;27.07
43553;BME280;29153;42.696;23.218;2023-03-20T14:39:49;94295.05;;;19.59;26.07
43553;BME280;29153;42.696;23.218;2023-03-20T14:56:09;94290.61;;;18.91;28.08
43553;BME280;29153;42.696;23.218;2023-03-20T14:58:50;94287.09;;;18.73;27.93
43553;BME280;29153;42.696;23.218;2023-03-20T15:01:32;94286.06;;;18.65;28.93
43553;BME280;29153;42.696;23.218;2023-03-20T15:03:59;94280.94;;;18.51;27.89
43553;BME280;29153;42.696;23.218;2023-03-20T15:06:29;94282.55;;;18.38;28.79
43553;BME280;29153;42.696;23.218;2023-03-20T15:09:00;94281.74;;;18.31;28.10
43553;BME280;29153;42.696;23.218;2023-03-20T15:11:29;94287.48;;;18.21;30.55
43553;BME280;29153;42.696;23.218;2023-03-20T15:13:59;94294.98;;;18.07;31.92
43553;BME280;29153;42.696;23.218;2023-03-20T15:16:32;94288.50;;;17.87;34.33
43553;BME280;29153;42.696;23.218;2023-03-20T15:19:00;94289.28;;;17.73;35.16
43553;BME280;29153;42.696;23.218;2023-03-20T15:21:36;94288.54;;;17.55;37.03
43553;BME280;29153;42.696;23.218;2023-03-20T15:24:03;94286.97;;;17.40;39.31
43553;BME280;29153;42.696;23.218;2023-03-20T15:26:33;94284.19;;;17.27;39.48
43553;BME280;29153;42.696;23.218;2023-03-20T15:29:06;94276.73;;;17.18;41.31